createdAt,value
2018-12-27T00:00:51.378Z,-0.50
2018-12-27T00:03:32.996Z,-0.50
2018-12-27T00:06:15.123Z,-0.50
2018-12-27T00:08:57.071Z,-0.50
2018-12-27T00:11:39.103Z,-0.50
2018-12-27T00:14:21.304Z,-0.40
2018-12-27T00:17:03.239Z,-0.50
2018-12-27T00:19:45.287Z,-0.50
2018-12-27T00:22:26.995Z,-0.40
2018-12-27T00:25:09.091Z,-0.40
2018-12-27T00:27:51.156Z,-0.40
2018-12-27T00:30:33.033Z,-0.40
2018-12-27T00:33:14.898Z,-0.40
2018-12-27T00:35:56.735Z,-0.40
2018-12-27T00:38:38.915Z,-0.50
2018-12-27T00:41:08.722Z,-0.50
2018-12-27T00:43:57.772Z,-0.50
2018-12-27T00:46:39.943Z,-0.60
2018-12-27T00:49:22.087Z,-0.50
2018-12-27T00:52:04.328Z,-0.50
2018-12-27T00:54:46.111Z,-0.50
2018-12-27T00:57:28.291Z,-0.50
2018-12-27T01:00:10.126Z,-0.60
2018-12-27T01:02:51.777Z,-0.60
2018-12-27T01:05:33.526Z,-0.50
2018-12-27T01:08:15.358Z,-0.60
2018-12-27T01:10:57.529Z,-0.50
2018-12-27T01:13:39.485Z,-0.50
2018-12-27T01:16:21.485Z,-0.50
2018-12-27T01:19:02.917Z,-0.50
2018-12-27T01:21:44.719Z,-0.50
2018-12-27T01:24:26.438Z,-0.50
2018-12-27T01:27:08.646Z,-0.50
2018-12-27T01:29:50.493Z,-0.60
2018-12-27T01:32:32.221Z,-0.60
2018-12-27T01:35:14.084Z,-0.60
2018-12-27T01:37:43.849Z,-0.60
2018-12-27T01:40:13.736Z,-0.60
2018-12-27T01:42:43.498Z,-0.60
2018-12-27T01:45:25.792Z,-0.60
2018-12-27T01:48:07.425Z,-0.60
2018-12-27T01:50:49.285Z,-0.60
2018-12-27T01:53:19.048Z,-0.60
2018-12-27T01:55:48.829Z,-0.60
2018-12-27T01:58:37.848Z,-0.60
2018-12-27T02:01:19.277Z,-0.60
2018-12-27T02:04:01.274Z,-0.60
2018-12-27T02:06:41.252Z,-0.60
2018-12-27T02:09:30.279Z,-0.60
2018-12-27T02:12:12.005Z,-0.60
2018-12-27T02:14:53.950Z,-0.60
2018-12-27T02:17:36.408Z,-0.60
2018-12-27T02:20:18.673Z,-0.70
2018-12-27T02:23:00.340Z,-0.70
2018-12-27T02:25:42.653Z,-0.70
2018-12-27T02:28:25.330Z,-0.70
2018-12-27T02:31:07.101Z,-0.70
2018-12-27T02:33:49.182Z,-0.70
2018-12-27T02:36:31.429Z,-0.70
2018-12-27T02:39:13.384Z,-0.80
2018-12-27T02:41:55.550Z,-0.70
2018-12-27T02:44:37.074Z,-0.70
2018-12-27T02:47:18.680Z,-0.70
2018-12-27T02:50:00.426Z,-0.70
2018-12-27T02:52:42.560Z,-0.70
2018-12-27T02:55:24.467Z,-0.70
2018-12-27T02:58:06.542Z,-0.70
2018-12-27T03:00:48.183Z,-0.70
2018-12-27T03:03:29.874Z,-0.70
2018-12-27T03:05:59.738Z,-0.80
2018-12-27T03:08:49.226Z,-0.70
2018-12-27T03:11:31.570Z,-0.70
2018-12-27T03:14:13.373Z,-0.70
2018-12-27T03:16:55.269Z,-0.70
2018-12-27T03:19:37.100Z,-0.80
2018-12-27T03:22:19.431Z,-0.80
2018-12-27T03:25:01.662Z,-0.70
2018-12-27T03:27:43.278Z,-0.80
2018-12-27T03:30:25.374Z,-0.80
2018-12-27T03:33:07.505Z,-0.70
2018-12-27T03:35:49.375Z,-0.70
2018-12-27T03:38:31.120Z,-0.70
2018-12-27T03:41:12.728Z,-0.70
2018-12-27T03:43:42.501Z,-0.70
2018-12-27T03:46:31.514Z,-0.70
2018-12-27T03:49:13.129Z,-0.70
2018-12-27T03:51:54.884Z,-0.70
2018-12-27T03:54:36.737Z,-0.70
2018-12-27T03:57:18.686Z,-0.70
2018-12-27T04:00:00.920Z,-0.80
2018-12-27T04:02:43.218Z,-0.80
2018-12-27T04:05:25.134Z,-0.90
2018-12-27T04:08:06.734Z,-0.90
2018-12-27T04:10:48.290Z,-0.90
2018-12-27T04:13:29.824Z,-1.00
2018-12-27T04:16:12.015Z,-1.00
2018-12-27T04:18:55.094Z,-1.10
2018-12-27T04:21:36.844Z,-1.10
2018-12-27T04:24:18.881Z,-1.10
2018-12-27T04:27:00.820Z,-1.10
2018-12-27T04:29:42.781Z,-1.10
2018-12-27T04:32:24.711Z,-1.10
2018-12-27T04:35:06.677Z,-1.10
2018-12-27T04:37:48.821Z,-1.10
2018-12-27T04:40:30.564Z,-1.10
2018-12-27T04:43:12.337Z,-1.10
2018-12-27T04:45:54.234Z,-1.10
2018-12-27T04:48:36.372Z,-1.20
2018-12-27T04:51:18.290Z,-1.10
2018-12-27T04:54:00.409Z,-1.00
2018-12-27T04:56:42.389Z,-0.90
2018-12-27T04:59:24.017Z,-0.90
2018-12-27T05:02:06.249Z,-0.80
2018-12-27T05:04:47.610Z,-0.80
2018-12-27T05:07:29.444Z,-0.80
2018-12-27T05:10:10.890Z,-0.80
2018-12-27T05:12:52.715Z,-0.80
2018-12-27T05:15:34.821Z,-0.80
2018-12-27T05:18:16.770Z,-0.80
2018-12-27T05:20:58.291Z,-0.90
2018-12-27T05:23:40.400Z,-0.80
2018-12-27T05:26:23.000Z,-0.80
2018-12-27T05:29:04.705Z,-0.80
2018-12-27T05:31:46.788Z,-0.80
2018-12-27T05:34:28.747Z,-0.90
2018-12-27T05:37:10.210Z,-0.90
2018-12-27T05:39:52.529Z,-0.90
2018-12-27T05:42:34.433Z,-0.90
2018-12-27T05:45:16.530Z,-0.90
2018-12-27T05:47:58.210Z,-0.90
2018-12-27T05:50:40.164Z,-0.90
2018-12-27T05:53:22.072Z,-0.90
2018-12-27T05:56:03.725Z,-0.80
2018-12-27T05:58:46.020Z,-0.80
2018-12-27T06:01:28.004Z,-0.80
2018-12-27T06:04:09.932Z,-0.90
2018-12-27T06:06:51.773Z,-0.90
2018-12-27T06:09:33.740Z,-0.90
2018-12-27T06:12:15.422Z,-0.90
2018-12-27T06:14:57.353Z,-0.90
2018-12-27T06:17:39.096Z,-0.90
2018-12-27T06:20:20.995Z,-0.90
2018-12-27T06:23:02.451Z,-0.90
2018-12-27T06:25:44.341Z,-0.90
2018-12-27T06:28:26.329Z,-0.90
2018-12-27T06:31:08.358Z,-0.80
2018-12-27T06:33:50.538Z,-0.90
2018-12-27T06:36:32.780Z,-0.80
2018-12-27T06:39:14.652Z,-0.80
2018-12-27T06:41:56.398Z,-0.90
2018-12-27T06:44:38.525Z,-0.90
2018-12-27T06:47:20.344Z,-0.80
2018-12-27T06:50:02.558Z,-0.80
2018-12-27T06:52:44.169Z,-0.80
2018-12-27T06:55:25.841Z,-0.80
2018-12-27T06:58:08.513Z,-0.70
2018-12-27T07:00:50.793Z,-0.70
2018-12-27T07:03:32.492Z,-0.70
2018-12-27T07:06:14.609Z,-0.70
2018-12-27T07:09:00.112Z,-0.70
2018-12-27T07:11:41.904Z,-0.70
2018-12-27T07:14:23.266Z,-0.70
2018-12-27T07:17:05.554Z,-0.70
2018-12-27T07:19:47.047Z,-0.60
2018-12-27T07:22:29.013Z,-0.60
2018-12-27T07:25:10.905Z,-0.60
2018-12-27T07:27:52.753Z,-0.50
2018-12-27T07:30:34.735Z,-0.50
2018-12-27T07:33:16.781Z,-0.60
2018-12-27T07:35:58.813Z,-0.50
2018-12-27T07:38:40.952Z,-0.40
2018-12-27T07:41:22.831Z,-0.40
2018-12-27T07:44:04.910Z,-0.40
2018-12-27T07:46:46.561Z,-0.40
2018-12-27T07:49:28.337Z,-0.40
2018-12-27T07:52:10.341Z,-0.30
2018-12-27T07:54:52.351Z,-0.30
2018-12-27T07:57:33.904Z,-0.30
2018-12-27T08:00:16.076Z,-0.40
2018-12-27T08:02:57.889Z,-0.40
2018-12-27T08:05:39.818Z,-0.40
2018-12-27T08:08:21.809Z,-0.30
2018-12-27T08:11:03.811Z,-0.20
2018-12-27T08:13:45.900Z,-0.20
2018-12-27T08:16:28.080Z,-0.10
2018-12-27T08:22:11.461Z,0.00
2018-12-27T08:25:00.404Z,-0.10
2018-12-27T08:27:42.344Z,-0.10
2018-12-27T08:30:24.579Z,0.00
2018-12-27T08:32:54.205Z,0.00
2018-12-27T08:35:23.800Z,0.10
2018-12-27T08:37:53.519Z,0.10
2018-12-27T08:40:23.217Z,0.10
2018-12-27T08:43:05.377Z,0.10
2018-12-27T08:45:47.626Z,0.20
2018-12-27T08:48:29.421Z,0.10
2018-12-27T08:54:33.266Z,0.30
2018-12-27T08:57:15.017Z,0.40
2018-12-27T08:59:56.573Z,0.40
2018-12-27T09:02:38.026Z,0.50
2018-12-27T09:05:19.716Z,0.50
2018-12-27T09:08:01.811Z,0.60
2018-12-27T09:10:43.601Z,0.60
2018-12-27T09:13:25.644Z,0.60
2018-12-27T09:16:07.576Z,0.70
2018-12-27T09:18:49.749Z,0.70
2018-12-27T09:21:32.001Z,0.80
2018-12-27T09:24:14.179Z,0.80
2018-12-27T09:26:56.037Z,0.80
2018-12-27T09:29:37.941Z,0.90
2018-12-27T09:32:19.645Z,0.90
2018-12-27T09:35:01.504Z,0.90
2018-12-27T09:37:43.099Z,0.90
2018-12-27T09:40:26.271Z,1.00
2018-12-27T09:43:08.225Z,1.10
2018-12-27T09:45:50.111Z,1.10
2018-12-27T09:48:32.414Z,1.10
2018-12-27T09:51:14.537Z,1.20
2018-12-27T09:53:56.290Z,1.20
2018-12-27T09:56:38.483Z,1.20
2018-12-27T09:59:19.943Z,1.20
2018-12-27T10:02:01.705Z,1.30
2018-12-27T10:04:43.748Z,1.30
2018-12-27T10:07:25.815Z,1.30
2018-12-27T10:10:07.667Z,1.40
2018-12-27T10:12:49.390Z,1.40
2018-12-27T10:15:31.653Z,1.40
2018-12-27T10:18:13.084Z,1.40
2018-12-27T10:20:54.810Z,1.40
2018-12-27T10:23:36.973Z,1.50
2018-12-27T10:26:18.492Z,1.50
2018-12-27T10:29:00.680Z,1.50
2018-12-27T10:31:42.592Z,1.60
2018-12-27T10:34:24.797Z,1.60
2018-12-27T10:37:06.397Z,1.70
2018-12-27T10:39:48.144Z,1.70
2018-12-27T10:42:29.854Z,1.80
2018-12-27T10:45:11.745Z,1.80
2018-12-27T10:47:53.414Z,1.90
2018-12-27T10:50:34.948Z,1.90
2018-12-27T10:53:16.840Z,2.00
2018-12-27T10:55:58.494Z,1.90
2018-12-27T10:58:41.083Z,2.00
2018-12-27T11:01:23.378Z,2.00
2018-12-27T11:04:05.354Z,2.10
2018-12-27T11:06:47.391Z,2.10
2018-12-27T11:09:30.881Z,2.10
2018-12-27T11:12:13.250Z,2.20
2018-12-27T11:14:55.212Z,2.20
2018-12-27T11:17:37.078Z,2.20
2018-12-27T11:20:19.413Z,2.30
2018-12-27T11:23:01.396Z,2.40
2018-12-27T11:25:44.364Z,2.40
2018-12-27T11:28:27.038Z,2.40
2018-12-27T11:31:10.766Z,2.40
2018-12-27T11:33:56.703Z,2.50
2018-12-27T11:36:39.021Z,2.60
2018-12-27T11:39:22.161Z,2.60
2018-12-27T11:42:05.391Z,2.70
2018-12-27T11:44:48.076Z,2.70
2018-12-27T11:47:31.694Z,2.70
2018-12-27T11:50:15.236Z,2.70
2018-12-27T11:52:58.899Z,2.70
2018-12-27T11:55:41.402Z,2.70
2018-12-27T11:58:23.159Z,2.70
2018-12-27T12:04:35.474Z,2.80
2018-12-27T12:07:08.135Z,2.80
2018-12-27T12:12:58.538Z,2.80
2018-12-27T12:15:41.153Z,2.90
2018-12-27T12:18:24.174Z,2.80
2018-12-27T12:21:08.207Z,2.90
2018-12-27T12:26:48.224Z,2.90
2018-12-27T12:29:32.284Z,2.90
2018-12-27T12:35:12.123Z,3.00
2018-12-27T12:38:01.812Z,3.00
2018-12-27T12:40:41.700Z,3.10
2018-12-27T12:43:23.512Z,3.00
2018-12-27T12:46:06.131Z,3.00
2018-12-27T12:48:50.200Z,3.00
2018-12-27T12:51:34.117Z,3.00
2018-12-27T12:54:16.809Z,3.00
2018-12-27T12:56:59.214Z,3.00
2018-12-27T12:59:42.947Z,3.00
2018-12-27T13:02:26.232Z,3.00
2018-12-27T13:05:09.299Z,3.00
2018-12-27T13:07:55.665Z,3.00
2018-12-27T13:10:39.993Z,3.00
2018-12-27T13:13:21.921Z,3.00
2018-12-27T13:16:09.003Z,3.00
2018-12-27T13:18:55.785Z,3.00
2018-12-27T13:21:35.271Z,3.00
2018-12-27T13:24:19.489Z,3.00
2018-12-27T13:27:02.464Z,3.00
2018-12-27T13:29:47.071Z,3.00
2018-12-27T13:32:30.531Z,3.00
2018-12-27T13:35:14.979Z,3.00
2018-12-27T13:37:57.412Z,3.00
2018-12-27T13:40:39.934Z,3.00
2018-12-27T13:43:22.608Z,3.00
2018-12-27T13:46:09.384Z,3.00
2018-12-27T13:48:53.197Z,3.00
2018-12-27T13:51:37.979Z,3.00
2018-12-27T13:54:21.654Z,3.00
2018-12-27T13:57:06.058Z,3.00
2018-12-27T13:59:48.699Z,3.00
2018-12-27T14:02:31.982Z,3.00
2018-12-27T14:05:14.657Z,3.00
2018-12-27T14:07:59.255Z,3.00
2018-12-27T14:10:42.034Z,3.00
2018-12-27T14:13:24.571Z,3.00
2018-12-27T14:16:09.092Z,3.00
2018-12-27T14:18:51.195Z,3.00
2018-12-27T14:21:34.188Z,3.00
2018-12-27T14:24:16.353Z,3.00
2018-12-27T14:26:59.327Z,3.00
2018-12-27T14:29:42.213Z,3.00
2018-12-27T14:32:26.717Z,3.00
2018-12-27T14:35:09.448Z,3.00
2018-12-27T14:37:54.450Z,3.00
2018-12-27T14:40:39.134Z,3.00
2018-12-27T14:43:22.330Z,3.00
2018-12-27T14:46:05.363Z,3.00
2018-12-27T14:48:47.836Z,3.00
2018-12-27T14:51:31.436Z,3.00
2018-12-27T14:54:13.126Z,3.00
2018-12-27T14:56:45.051Z,3.00
2018-12-27T15:02:37.431Z,3.00
2018-12-27T15:05:19.548Z,2.90
2018-12-27T15:07:49.806Z,2.90
2018-12-27T15:10:20.209Z,2.90
2018-12-27T15:12:50.547Z,2.90
2018-12-27T15:15:22.724Z,2.90
2018-12-27T15:17:53.912Z,2.90
2018-12-27T15:21:02.530Z,2.90
2018-12-27T15:23:45.074Z,2.90
2018-12-27T15:26:30.137Z,2.90
2018-12-27T15:29:12.575Z,2.80
2018-12-27T15:31:56.005Z,2.80
2018-12-27T15:34:39.432Z,2.80
2018-12-27T15:37:11.965Z,2.80
2018-12-27T15:40:01.862Z,2.80
2018-12-27T15:42:43.845Z,2.70
2018-12-27T15:45:45.405Z,2.70
2018-12-27T15:48:29.133Z,2.70
2018-12-27T15:51:11.670Z,2.60
2018-12-27T15:53:42.711Z,2.60
2018-12-27T15:56:32.712Z,2.60
2018-12-27T15:59:15.931Z,2.60
2018-12-27T16:02:01.665Z,2.60
2018-12-27T16:04:45.059Z,2.60
2018-12-27T16:07:29.660Z,2.60
2018-12-27T16:10:13.924Z,2.60
2018-12-27T16:12:57.693Z,2.60
2018-12-27T16:15:39.960Z,2.60
2018-12-27T16:18:22.235Z,2.50
2018-12-27T16:21:04.857Z,2.50
2018-12-27T16:23:50.275Z,2.50
2018-12-27T16:26:34.274Z,2.50
2018-12-27T16:32:07.444Z,2.50
2018-12-27T16:34:57.307Z,2.50
2018-12-27T16:37:42.124Z,2.40
2018-12-27T16:40:24.826Z,2.40
2018-12-27T16:43:08.515Z,2.40
2018-12-27T16:45:51.684Z,2.40
2018-12-27T16:48:41.340Z,2.40
2018-12-27T16:51:26.121Z,2.40
2018-12-27T16:54:08.613Z,2.40
2018-12-27T16:57:09.697Z,2.40
2018-12-27T16:59:45.163Z,2.40
2018-12-27T17:02:28.374Z,2.30
2018-12-27T17:05:12.238Z,2.30
2018-12-27T17:07:59.157Z,2.30
2018-12-27T17:10:39.532Z,2.20
2018-12-27T17:13:23.228Z,2.20
2018-12-27T17:16:06.532Z,2.20
2018-12-27T17:18:48.652Z,2.20
2018-12-27T17:21:31.410Z,2.10
2018-12-27T17:24:14.398Z,2.10
2018-12-27T17:26:59.975Z,2.10
2018-12-27T17:29:31.085Z,2.00
2018-12-27T17:32:34.819Z,2.00
2018-12-27T17:35:15.671Z,2.00
2018-12-27T17:37:59.763Z,2.00
2018-12-27T17:40:42.040Z,2.00
2018-12-27T17:43:24.039Z,2.00
2018-12-27T17:46:07.144Z,2.00
2018-12-27T17:48:50.193Z,1.90
2018-12-27T17:51:32.870Z,2.00
2018-12-27T17:57:21.551Z,2.00
2018-12-27T18:00:04.122Z,2.00
2018-12-27T18:02:48.061Z,2.00
2018-12-27T18:05:18.417Z,2.00
2018-12-27T18:11:16.747Z,2.00
2018-12-27T18:13:59.131Z,2.00
2018-12-27T18:16:56.697Z,1.90
2018-12-27T18:19:25.790Z,1.90
2018-12-27T18:22:09.461Z,1.90
2018-12-27T18:24:53.409Z,1.90
2018-12-27T18:27:37.144Z,1.90
2018-12-27T18:30:21.020Z,1.90
2018-12-27T18:33:03.025Z,1.80
2018-12-27T18:35:48.427Z,1.80
2018-12-27T18:38:30.874Z,1.70
2018-12-27T18:41:13.074Z,1.60
2018-12-27T18:43:55.787Z,1.60
2018-12-27T18:46:41.422Z,1.50
2018-12-27T18:49:31.713Z,1.50
2018-12-27T18:52:37.528Z,1.50
2018-12-27T18:55:20.305Z,1.50
2018-12-27T18:58:01.975Z,1.50
2018-12-27T19:00:43.779Z,1.50
2018-12-27T19:03:25.846Z,1.50
2018-12-27T19:06:07.853Z,1.50
2018-12-27T19:08:49.618Z,1.50
2018-12-27T19:11:31.146Z,1.50
2018-12-27T19:14:12.830Z,1.50
2018-12-27T19:16:54.984Z,1.50
2018-12-27T19:19:36.923Z,1.50
2018-12-27T19:22:20.531Z,1.50
2018-12-27T19:25:02.311Z,1.50
2018-12-27T19:27:44.210Z,1.50
2018-12-27T19:30:26.477Z,1.50
2018-12-27T19:33:08.126Z,1.50
2018-12-27T19:35:50.826Z,1.50
2018-12-27T19:38:33.143Z,1.50
2018-12-27T19:41:14.603Z,1.50
2018-12-27T19:43:56.553Z,1.40
2018-12-27T19:46:38.635Z,1.40
2018-12-27T19:49:21.038Z,1.40
2018-12-27T19:52:03.478Z,1.40
2018-12-27T19:54:44.971Z,1.40
2018-12-27T19:57:26.856Z,1.40
2018-12-27T20:00:08.694Z,1.40
2018-12-27T20:02:50.165Z,1.40
2018-12-27T20:05:31.811Z,1.40
2018-12-27T20:08:13.393Z,1.40
2018-12-27T20:10:55.573Z,1.40
2018-12-27T20:13:37.639Z,1.40
2018-12-27T20:16:19.596Z,1.40
2018-12-27T20:19:01.340Z,1.40
2018-12-27T20:21:44.271Z,1.40
2018-12-27T20:24:26.279Z,1.40
2018-12-27T20:27:08.537Z,1.40
2018-12-27T20:29:50.419Z,1.40
2018-12-27T20:32:32.613Z,1.40
2018-12-27T20:35:14.609Z,1.40
2018-12-27T20:37:56.852Z,1.40
2018-12-27T20:40:38.862Z,1.40
2018-12-27T20:43:21.550Z,1.40
2018-12-27T20:46:03.212Z,1.40
2018-12-27T20:48:45.412Z,1.40
2018-12-27T20:51:27.238Z,1.40
2018-12-27T20:54:09.414Z,1.40
2018-12-27T20:56:51.041Z,1.40
2018-12-27T20:59:32.660Z,1.40
2018-12-27T21:02:14.226Z,1.40
2018-12-27T21:04:43.828Z,1.40
2018-12-27T21:07:13.457Z,1.40
2018-12-27T21:09:55.143Z,1.40
2018-12-27T21:12:37.090Z,1.30
2018-12-27T21:15:20.046Z,1.30
2018-12-27T21:18:02.089Z,1.30
2018-12-27T21:20:43.578Z,1.30
2018-12-27T21:23:25.466Z,1.30
2018-12-27T21:26:07.254Z,1.30
2018-12-27T21:28:49.473Z,1.30
2018-12-27T21:31:31.408Z,1.30
2018-12-27T21:34:13.266Z,1.30
2018-12-27T21:36:55.264Z,1.30
2018-12-27T21:39:36.865Z,1.30
2018-12-27T21:42:18.794Z,1.30
2018-12-27T21:45:00.414Z,1.30
2018-12-27T21:47:42.296Z,1.30
2018-12-27T21:50:11.927Z,1.30
2018-12-27T21:53:00.859Z,1.30
2018-12-27T21:55:49.830Z,1.30
2018-12-27T21:58:32.029Z,1.30
2018-12-27T22:01:01.630Z,1.10
2018-12-27T22:03:31.244Z,1.00
2018-12-27T22:06:00.837Z,1.00
2018-12-27T22:08:30.478Z,1.00
2018-12-27T22:11:19.420Z,1.00
2018-12-27T22:14:01.050Z,0.90
2018-12-27T22:16:43.036Z,1.00
2018-12-27T22:19:25.380Z,1.10
2018-12-27T22:22:07.166Z,1.10
2018-12-27T22:24:49.168Z,1.10
2018-12-27T22:27:30.964Z,1.10
2018-12-27T22:30:13.033Z,1.10
2018-12-27T22:32:55.044Z,1.00
2018-12-27T22:35:36.860Z,1.00
2018-12-27T22:38:18.547Z,0.90
2018-12-27T22:41:00.549Z,0.90
2018-12-27T22:43:42.394Z,0.90
2018-12-27T22:46:12.016Z,0.90
2018-12-27T22:49:00.991Z,1.00
2018-12-27T22:51:42.767Z,1.00
2018-12-27T22:54:24.842Z,1.00
2018-12-27T22:57:07.026Z,0.90
2018-12-27T22:59:50.230Z,1.00
2018-12-27T23:02:32.193Z,0.90
2018-12-27T23:05:13.854Z,0.90
2018-12-27T23:07:55.703Z,0.90
2018-12-27T23:10:37.607Z,0.90
2018-12-27T23:13:19.448Z,0.80
2018-12-27T23:16:01.185Z,0.80
2018-12-27T23:18:43.028Z,0.80
2018-12-27T23:21:24.789Z,0.80
2018-12-27T23:24:06.601Z,0.80
2018-12-27T23:26:48.742Z,0.80
2018-12-27T23:29:30.466Z,0.80
2018-12-27T23:32:11.989Z,0.80
2018-12-27T23:34:54.183Z,0.90
2018-12-27T23:37:35.673Z,0.90
2018-12-27T23:40:17.802Z,0.80
2018-12-27T23:42:59.977Z,0.80
2018-12-27T23:45:41.822Z,0.90
2018-12-27T23:48:23.833Z,0.90
2018-12-27T23:51:05.542Z,0.90
2018-12-27T23:53:47.322Z,0.90
2018-12-27T23:56:29.514Z,0.90
2018-12-27T23:59:11.019Z,0.90
